Time,TemperatureF,DewpointF,PressureIn,WindDirection,WindDirectionDegrees,WindSpeedMPH,WindSpeedGustMPH,Humidity,HourlyPrecipIn,Conditions,Clouds,dailyrainin,SoftwareType,DateUTC
2013-06-21 00:02:00,47.8,42.4,29.94,North,0,0.0,-999.0,81,0.00,,,-99.99,,2013-06-21 08:02:00,
2013-06-21 00:07:00,47.8,42.4,29.94,North,0,0.0,-999.0,81,0.00,,,-99.99,,2013-06-21 08:07:00,
2013-06-21 00:12:00,47.7,42.7,29.94,North,0,0.0,-999.0,82,0.00,,,-99.99,,2013-06-21 08:12:00,
2013-06-21 00:17:00,47.8,42.8,29.94,North,0,0.0,-999.0,82,0.00,,,-99.99,,2013-06-21 08:17:00,
2013-06-21 00:22:00,47.8,43.0,29.94,North,0,0.0,-999.0,83,0.00,,,-99.99,,2013-06-21 08:22:00,
2013-06-21 00:27:00,47.9,43.2,29.94,North,0,0.0,-999.0,83,0.00,,,-99.99,,2013-06-21 08:27:00,
2013-06-21 00:32:00,48.2,43.4,29.94,North,0,0.0,-999.0,83,0.00,,,-99.99,,2013-06-21 08:32:00,
2013-06-21 00:37:00,48.1,43.8,29.94,North,0,0.0,-999.0,84,0.00,,,-99.99,,2013-06-21 08:37:00,
2013-06-21 00:42:00,48.0,43.7,29.94,North,0,0.0,-999.0,85,0.00,,,-99.99,,2013-06-21 08:42:00,
2013-06-21 00:47:00,47.8,44.0,29.94,North,0,0.0,-999.0,86,0.00,,,-99.99,,2013-06-21 08:47:00,
2013-06-21 00:52:00,47.7,44.4,29.94,North,0,0.0,-999.0,88,0.00,,,-99.99,,2013-06-21 08:52:00,
2013-06-21 00:57:00,47.6,44.9,29.94,North,0,0.0,-999.0,90,0.00,,,-99.99,,2013-06-21 08:57:00,
2013-06-21 01:02:00,47.3,44.9,29.95,North,0,0.0,-999.0,91,0.00,,,-99.99,,2013-06-21 09:02:00,
2013-06-21 01:07:00,47.0,44.6,29.95,North,0,0.0,-999.0,91,0.00,,,-99.99,,2013-06-21 09:07:00,
2013-06-21 01:12:00,46.8,44.6,29.95,North,0,0.0,-999.0,91,0.00,,,-99.99,,2013-06-21 09:12:00,
2013-06-21 01:17:00,47.0,44.8,29.95,North,0,0.0,-999.0,92,0.00,,,-99.99,,2013-06-21 09:17:00,
2013-06-21 01:22:00,47.0,45.1,29.95,North,0,0.0,-999.0,93,0.00,,,-99.99,,2013-06-21 09:22:00,
2013-06-21 01:27:00,46.9,44.8,29.95,North,0,0.0,-999.0,92,0.00,,,-99.99,,2013-06-21 09:27:00,
2013-06-21 01:32:00,47.1,44.9,29.95,North,0,0.0,-999.0,92,0.00,,,-99.99,,2013-06-21 09:32:00,
2013-06-21 01:37:00,47.1,45.0,29.95,North,0,0.0,-999.0,92,0.00,,,-99.99,,2013-06-21 09:37:00,
2013-06-21 01:42:00,47.1,45.0,29.95,North,0,0.0,-999.0,92,0.00,,,-99.99,,2013-06-21 09:42:00,
2013-06-21 01:47:00,47.3,45.3,29.95,North,0,0.0,-999.0,92,0.00,,,-99.99,,2013-06-21 09:47:00,
2013-06-21 01:52:00,47.0,44.9,29.95,North,0,0.0,-999.0,92,0.00,,,-99.99,,2013-06-21 09:52:00,
2013-06-21 01:57:00,47.0,45.2,29.95,North,0,0.0,-999.0,93,0.00,,,-99.99,,2013-06-21 09:57:00,
2013-06-21 02:02:00,46.8,44.9,29.96,North,0,0.0,-999.0,93,0.00,,,-99.99,,2013-06-21 10:02:00,
2013-06-21 02:08:00,47.1,45.3,29.96,North,0,0.0,-999.0,93,0.00,,,-99.99,,2013-06-21 10:08:00,
2013-06-21 02:13:00,46.8,45.0,29.96,North,0,0.0,-999.0,93,0.00,,,-99.99,,2013-06-21 10:13:00,
2013-06-21 02:18:00,47.0,45.2,29.96,North,0,0.0,-999.0,93,0.00,,,-99.99,,2013-06-21 10:18:00,
2013-06-21 02:23:00,46.7,44.8,29.96,North,0,0.0,-999.0,92,0.00,,,-99.99,,2013-06-21 10:23:00,
2013-06-21 02:28:00,46.8,45.0,29.96,North,0,0.0,-999.0,93,0.00,,,-99.99,,2013-06-21 10:28:00,
2013-06-21 02:33:00,46.7,45.1,29.96,North,0,0.0,-999.0,93,0.00,,,-99.99,,2013-06-21 10:33:00,
2013-06-21 02:38:00,46.8,45.0,29.96,North,0,0.0,-999.0,93,0.00,,,-99.99,,2013-06-21 10:38:00,
2013-06-21 02:43:00,46.7,45.0,29.96,North,0,0.0,-999.0,93,0.00,,,-99.99,,2013-06-21 10:43:00,
2013-06-21 02:48:00,46.6,44.9,29.96,North,0,0.0,-999.0,93,0.00,,,-99.99,,2013-06-21 10:48:00,
2013-06-21 02:53:00,46.6,45.1,29.96,North,0,0.0,-999.0,94,0.00,,,-99.99,,2013-06-21 10:53:00,
2013-06-21 02:58:00,46.7,45.2,29.96,North,0,0.0,-999.0,94,0.00,,,-99.99,,2013-06-21 10:58:00,
2013-06-21 03:03:00,46.7,45.1,29.96,North,0,0.0,-999.0,94,0.00,,,-99.99,,2013-06-21 11:03:00,
2013-06-21 03:08:00,46.8,45.2,29.96,North,0,0.0,-999.0,93,0.00,,,-99.99,,2013-06-21 11:08:00,
2013-06-21 03:13:00,46.8,45.1,29.96,North,0,0.0,-999.0,93,0.00,,,-99.99,,2013-06-21 11:13:00,
2013-06-21 03:18:00,46.8,45.1,29.96,North,0,0.0,-999.0,93,0.00,,,-99.99,,2013-06-21 11:18:00,
2013-06-21 03:23:00,47.0,45.3,29.96,North,0,0.0,-999.0,93,0.00,,,-99.99,,2013-06-21 11:23:00,
2013-06-21 03:28:00,47.0,45.0,29.96,North,0,0.0,-999.0,92,0.00,,,-99.99,,2013-06-21 11:28:00,
2013-06-21 03:33:00,46.9,45.1,29.96,North,0,0.0,-999.0,93,0.00,,,-99.99,,2013-06-21 11:33:00,
2013-06-21 03:38:00,46.8,45.1,29.96,North,0,0.0,-999.0,93,0.00,,,-99.99,,2013-06-21 11:38:00,
2013-06-21 03:43:00,46.6,44.9,29.96,North,0,0.0,-999.0,93,0.00,,,-99.99,,2013-06-21 11:43:00,
2013-06-21 03:48:00,46.4,44.8,29.96,North,0,0.0,-999.0,93,0.00,,,-99.99,,2013-06-21 11:48:00,
2013-06-21 03:53:00,46.4,44.8,29.96,North,0,0.0,-999.0,94,0.00,,,-99.99,,2013-06-21 11:53:00,
2013-06-21 03:58:00,46.5,45.0,29.96,North,0,0.0,-999.0,94,0.00,,,-99.99,,2013-06-21 11:58:00,
2013-06-21 04:03:00,46.7,45.2,29.94,North,0,0.0,-999.0,94,0.00,,,-99.99,,2013-06-21 12:03:00,
2013-06-21 04:08:00,46.8,45.1,29.94,North,0,0.0,-999.0,93,0.00,,,-99.99,,2013-06-21 12:08:00,
2013-06-21 04:13:00,46.8,45.2,29.94,North,0,0.0,-999.0,93,0.00,,,-99.99,,2013-06-21 12:13:00,
2013-06-21 04:18:00,46.9,45.2,29.94,North,0,0.0,-999.0,93,0.00,,,-99.99,,2013-06-21 12:18:00,
2013-06-21 04:23:00,46.8,45.1,29.94,North,0,0.0,-999.0,93,0.00,,,-99.99,,2013-06-21 12:23:00,
2013-06-21 04:28:00,46.6,44.8,29.94,North,0,0.0,-999.0,93,0.00,,,-99.99,,2013-06-21 12:28:00,
2013-06-21 04:33:00,46.8,45.0,29.94,North,0,0.0,-999.0,93,0.00,,,-99.99,,2013-06-21 12:33:00,
2013-06-21 04:38:00,46.7,44.9,29.94,North,0,0.0,-999.0,93,0.00,,,-99.99,,2013-06-21 12:38:00,
2013-06-21 04:43:00,46.7,45.0,29.94,North,0,0.0,-999.0,93,0.00,,,-99.99,,2013-06-21 12:43:00,
2013-06-21 04:48:00,46.8,45.2,29.94,North,0,0.0,-999.0,93,0.00,,,-99.99,,2013-06-21 12:48:00,
2013-06-21 04:53:00,47.0,45.4,29.94,North,0,0.0,-999.0,94,0.00,,,-99.99,,2013-06-21 12:53:00,
2013-06-21 04:58:00,46.9,45.1,29.94,North,0,0.0,-999.0,93,0.00,,,-99.99,,2013-06-21 12:58:00,
2013-06-21 05:03:00,46.9,45.3,29.95,North,0,0.0,-999.0,93,0.00,,,-99.99,,2013-06-21 13:03:00,
2013-06-21 05:08:00,46.9,45.2,29.95,North,0,0.0,-999.0,93,0.00,,,-99.99,,2013-06-21 13:08:00,
2013-06-21 05:13:00,47.0,45.3,29.95,North,0,0.0,-999.0,93,0.00,,,-99.99,,2013-06-21 13:13:00,
2013-06-21 05:18:00,46.8,45.1,29.95,North,0,0.0,-999.0,93,0.00,,,-99.99,,2013-06-21 13:18:00,
2013-06-21 05:23:00,47.2,45.6,29.95,North,0,0.0,-999.0,93,0.00,,,-99.99,,2013-06-21 13:23:00,
2013-06-21 05:28:00,47.2,45.5,29.95,North,0,0.0,-999.0,93,0.00,,,-99.99,,2013-06-21 13:28:00,
2013-06-21 05:33:00,47.1,45.4,29.95,North,0,0.0,-999.0,93,0.00,,,-99.99,,2013-06-21 13:33:00,
2013-06-21 05:38:00,47.2,45.7,29.95,North,0,0.0,-999.0,94,0.00,,,-99.99,,2013-06-21 13:38:00,
2013-06-21 05:43:00,47.1,45.4,29.95,North,0,0.0,-999.0,93,0.00,,,-99.99,,2013-06-21 13:43:00,
2013-06-21 05:48:00,47.4,45.7,29.95,North,0,0.0,-999.0,93,0.00,,,-99.99,,2013-06-21 13:48:00,
2013-06-21 05:53:00,47.4,45.7,29.95,North,0,0.0,-999.0,93,0.00,,,-99.99,,2013-06-21 13:53:00,
2013-06-21 05:58:00,47.4,45.5,29.95,North,0,0.0,-999.0,92,0.00,,,-99.99,,2013-06-21 13:58:00,
2013-06-21 06:03:00,47.4,45.5,29.95,North,0,0.0,-999.0,93,0.00,,,-99.99,,2013-06-21 14:03:00,
2013-06-21 06:09:00,47.3,45.4,29.95,North,0,0.0,-999.0,92,0.00,,,-99.99,,2013-06-21 14:09:00,
2013-06-21 06:14:00,47.5,45.4,29.95,North,0,0.0,-999.0,92,0.00,,,-99.99,,2013-06-21 14:14:00,
2013-06-21 06:19:00,47.4,45.2,29.95,North,0,0.0,-999.0,92,0.00,,,-99.99,,2013-06-21 14:19:00,
2013-06-21 06:24:00,47.7,45.6,29.95,North,0,0.0,-999.0,92,0.00,,,-99.99,,2013-06-21 14:24:00,
2013-06-21 06:29:00,47.7,45.2,29.95,North,0,0.0,-999.0,90,0.00,,,-99.99,,2013-06-21 14:29:00,
2013-06-21 06:34:00,47.6,45.2,29.95,North,0,0.0,-999.0,91,0.00,,,-99.99,,2013-06-21 14:34:00,
2013-06-21 06:39:00,47.5,45.4,29.95,North,0,0.0,-999.0,92,0.00,,,-99.99,,2013-06-21 14:39:00,
2013-06-21 06:44:00,47.7,45.3,29.95,North,0,0.0,-999.0,91,0.00,,,-99.99,,2013-06-21 14:44:00,
2013-06-21 06:49:00,47.4,45.1,29.95,North,0,0.0,-999.0,91,0.00,,,-99.99,,2013-06-21 14:49:00,
2013-06-21 06:54:00,47.9,45.7,29.95,North,0,0.0,-999.0,92,0.00,,,-99.99,,2013-06-21 14:54:00,
2013-06-21 06:59:00,47.8,45.4,29.95,North,0,0.0,-999.0,91,0.00,,,-99.99,,2013-06-21 14:59:00,
2013-06-21 07:04:00,47.7,45.3,29.95,North,0,0.0,-999.0,91,0.00,,,-99.99,,2013-06-21 15:04:00,
2013-06-21 07:09:00,47.9,45.6,29.95,North,0,0.0,-999.0,91,0.00,,,-99.99,,2013-06-21 15:09:00,
2013-06-21 07:14:00,48.2,45.7,29.95,North,0,0.0,-999.0,90,0.00,,,-99.99,,2013-06-21 15:14:00,
2013-06-21 07:19:00,48.3,45.7,29.95,North,0,0.0,-999.0,90,0.00,,,-99.99,,2013-06-21 15:19:00,
2013-06-21 07:24:00,48.3,45.7,29.95,North,0,0.0,-999.0,90,0.00,,,-99.99,,2013-06-21 15:24:00,
2013-06-21 07:29:00,47.8,45.3,29.95,North,0,0.0,-999.0,90,0.00,,,-99.99,,2013-06-21 15:29:00,
2013-06-21 07:34:00,47.8,45.6,29.95,North,0,0.0,-999.0,91,0.00,,,-99.99,,2013-06-21 15:34:00,
2013-06-21 07:40:00,48.4,46.2,29.95,North,0,0.0,-999.0,92,0.00,,,-99.99,,2013-06-21 15:40:00,
2013-06-21 07:45:00,48.3,46.1,29.95,North,0,0.0,-999.0,91,0.00,,,-99.99,,2013-06-21 15:45:00,
2013-06-21 07:50:00,48.1,45.7,29.95,North,0,0.0,-999.0,91,0.00,,,-99.99,,2013-06-21 15:50:00,
2013-06-21 07:55:00,48.4,45.9,29.95,North,0,0.0,-999.0,90,0.00,,,-99.99,,2013-06-21 15:55:00,
2013-06-21 08:00:00,48.3,45.8,29.95,North,0,0.0,-999.0,90,0.00,,,-99.99,,2013-06-21 16:00:00,
2013-06-21 08:05:00,48.3,45.5,29.95,North,0,0.0,-999.0,90,0.00,,,-99.99,,2013-06-21 16:05:00,
2013-06-21 08:11:00,48.3,45.4,29.95,North,0,0.0,-999.0,89,0.00,,,-99.99,,2013-06-21 16:11:00,
2013-06-21 08:16:00,48.2,45.3,29.95,North,0,0.0,-999.0,89,0.00,,,-99.99,,2013-06-21 16:16:00,
2013-06-21 08:21:00,48.0,45.6,29.95,North,0,0.0,-999.0,91,0.00,,,-99.99,,2013-06-21 16:21:00,
2013-06-21 08:26:00,48.1,45.7,29.95,North,0,0.0,-999.0,91,0.00,,,-99.99,,2013-06-21 16:26:00,
2013-06-21 08:31:00,48.5,46.2,29.95,North,0,0.0,-999.0,91,0.00,,,-99.99,,2013-06-21 16:31:00,
2013-06-21 08:38:00,48.6,45.7,29.95,North,0,0.0,-999.0,89,0.00,,,-99.99,,2013-06-21 16:38:00,
2013-06-21 08:43:00,48.5,45.2,29.95,North,0,0.0,-999.0,88,0.00,,,-99.99,,2013-06-21 16:43:00,
2013-06-21 08:48:00,48.8,45.6,29.95,North,0,0.0,-999.0,88,0.00,,,-99.99,,2013-06-21 16:48:00,
2013-06-21 08:53:00,48.5,45.3,29.95,North,0,0.0,-999.0,88,0.00,,,-99.99,,2013-06-21 16:53:00,
2013-06-21 08:59:00,48.6,45.5,29.96,North,0,0.0,-999.0,89,0.00,,,-99.99,,2013-06-21 16:59:00,
2013-06-21 09:04:00,49.0,45.7,29.96,North,0,0.0,-999.0,88,0.00,,,-99.99,,2013-06-21 17:04:00,
2013-06-21 09:10:00,49.5,46.1,29.96,North,0,0.0,-999.0,87,0.00,,,-99.99,,2013-06-21 17:10:00,
2013-06-21 09:15:00,49.1,45.3,29.96,North,0,0.0,-999.0,86,0.00,,,-99.99,,2013-06-21 17:15:00,
2013-06-21 09:20:00,49.2,45.4,29.96,North,0,0.0,-999.0,86,0.00,,,-99.99,,2013-06-21 17:20:00,
2013-06-21 09:25:00,49.4,45.9,29.96,North,0,0.0,-999.0,87,0.00,,,-99.99,,2013-06-21 17:25:00,
2013-06-21 09:31:00,49.3,46.0,29.96,North,0,0.0,-999.0,88,0.00,,,-99.99,,2013-06-21 17:31:00,
2013-06-21 09:40:00,49.3,46.2,29.96,North,0,0.0,-999.0,89,0.00,,,-99.99,,2013-06-21 17:40:00,
2013-06-21 09:46:00,49.5,46.2,29.96,North,0,0.0,-999.0,88,0.00,,,-99.99,,2013-06-21 17:46:00,
2013-06-21 09:48:00,49.3,45.9,29.96,North,0,0.0,-999.0,88,0.00,,,-99.99,,2013-06-21 17:48:00,
2013-06-21 09:49:00,49.4,46.2,29.96,North,0,0.0,-999.0,88,0.00,,,-99.99,,2013-06-21 17:49:00,
2013-06-21 09:57:00,49.0,46.0,29.96,North,0,0.0,-999.0,89,0.00,,,-99.99,,2013-06-21 17:57:00,
2013-06-21 10:01:00,49.3,46.8,29.96,North,0,0.0,-999.0,90,0.00,,,-99.99,,2013-06-21 18:01:00,
2013-06-21 10:07:00,49.9,47.0,29.96,North,0,0.0,-999.0,89,0.00,,,-99.99,,2013-06-21 18:07:00,
2013-06-21 10:13:00,49.8,46.8,29.96,North,0,0.0,-999.0,89,0.00,,,-99.99,,2013-06-21 18:13:00,
2013-06-21 10:18:00,50.0,46.4,29.96,North,0,0.0,-999.0,87,0.00,,,-99.99,,2013-06-21 18:18:00,
2013-06-21 10:23:00,50.5,46.6,29.96,North,0,0.0,-999.0,86,0.00,,,-99.99,,2013-06-21 18:23:00,
2013-06-21 10:24:00,50.6,46.3,29.96,North,0,0.0,-999.0,85,0.00,,,-99.99,,2013-06-21 18:24:00,
2013-06-21 10:25:00,50.7,46.4,29.96,North,0,0.0,-999.0,85,0.00,,,-99.99,,2013-06-21 18:25:00,
2013-06-21 10:27:00,50.5,46.4,29.96,North,0,0.0,-999.0,85,0.00,,,-99.99,,2013-06-21 18:27:00,
2013-06-21 10:32:00,50.9,46.4,29.96,North,0,0.0,-999.0,84,0.00,,,-99.99,,2013-06-21 18:32:00,
2013-06-21 10:38:00,50.7,46.2,29.96,North,0,0.0,-999.0,84,0.00,,,-99.99,,2013-06-21 18:38:00,
2013-06-21 10:44:00,50.3,46.3,29.96,North,0,0.0,-999.0,86,0.00,,,-99.99,,2013-06-21 18:44:00,
2013-06-21 10:45:00,50.2,46.2,29.96,North,0,0.0,-999.0,85,0.00,,,-99.99,,2013-06-21 18:45:00,
2013-06-21 10:46:00,50.3,46.2,29.96,North,0,0.0,-999.0,85,0.00,,,-99.99,,2013-06-21 18:46:00,
2013-06-21 10:48:00,50.5,46.0,29.96,North,0,0.0,-999.0,84,0.00,,,-99.99,,2013-06-21 18:48:00,
2013-06-21 10:51:00,50.4,46.0,29.96,North,0,0.0,-999.0,84,0.00,,,-99.99,,2013-06-21 18:51:00,
2013-06-21 10:52:00,50.3,46.1,29.96,North,0,0.0,-999.0,85,0.00,,,-99.99,,2013-06-21 18:52:00,
2013-06-21 10:57:00,50.1,46.2,29.96,North,0,0.0,-999.0,86,0.00,,,-99.99,,2013-06-21 18:57:00,
2013-06-21 11:02:00,50.0,46.5,29.97,North,0,0.0,-999.0,87,0.00,,,-99.99,,2013-06-21 19:02:00,
2013-06-21 11:07:00,49.2,46.2,29.97,North,0,0.0,-999.0,89,0.00,,,-99.99,,2013-06-21 19:07:00,
2013-06-21 11:12:00,49.4,46.8,29.97,North,0,0.0,-999.0,90,0.00,,,-99.99,,2013-06-21 19:12:00,
2013-06-21 11:18:00,49.4,46.4,29.97,North,0,0.0,-999.0,89,0.00,,,-99.99,,2013-06-21 19:18:00,
2013-06-21 11:20:00,49.2,46.2,29.97,North,0,0.0,-999.0,89,0.00,,,-99.99,,2013-06-21 19:20:00,
2013-06-21 11:25:00,49.7,46.7,29.97,North,0,0.0,-999.0,89,0.00,,,-99.99,,2013-06-21 19:25:00,
2013-06-21 11:30:00,50.1,46.9,29.97,North,0,0.0,-999.0,88,0.00,,,-99.99,,2013-06-21 19:30:00,
2013-06-21 11:35:00,50.2,46.8,29.97,North,0,0.0,-999.0,87,0.00,,,-99.99,,2013-06-21 19:35:00,
2013-06-21 11:40:00,50.5,47.1,29.97,North,0,0.0,-999.0,88,0.00,,,-99.99,,2013-06-21 19:40:00,
2013-06-21 11:45:00,50.8,47.3,29.97,North,0,0.0,-999.0,87,0.00,,,-99.99,,2013-06-21 19:45:00,
2013-06-21 11:49:00,51.0,47.3,29.97,North,0,0.0,-999.0,87,0.00,,,-99.99,,2013-06-21 19:49:00,
2013-06-21 11:55:00,51.4,47.7,29.97,North,0,0.0,-999.0,87,0.00,,,-99.99,,2013-06-21 19:55:00,
2013-06-21 12:00:00,52.4,48.2,29.97,North,0,0.0,-999.0,85,0.00,,,-99.99,,2013-06-21 20:00:00,
2013-06-21 12:05:00,53.8,48.9,29.97,North,0,0.0,-999.0,83,0.00,,,-99.99,,2013-06-21 20:05:00,
2013-06-21 12:10:00,53.9,48.0,29.97,North,0,0.0,-999.0,80,0.00,,,-99.99,,2013-06-21 20:10:00,
2013-06-21 12:11:00,54.0,48.4,29.97,North,0,0.0,-999.0,81,0.00,,,-99.99,,2013-06-21 20:11:00,
2013-06-21 12:17:00,54.2,47.9,29.97,North,0,0.0,-999.0,79,0.00,,,-99.99,,2013-06-21 20:17:00,
2013-06-21 12:18:00,54.2,48.1,29.97,North,0,0.0,-999.0,79,0.00,,,-99.99,,2013-06-21 20:18:00,
2013-06-21 12:23:00,54.3,46.9,29.97,North,0,0.0,-999.0,75,0.00,,,-99.99,,2013-06-21 20:23:00,
2013-06-21 12:28:00,54.5,47.2,29.97,North,0,0.0,-999.0,76,0.00,,,-99.99,,2013-06-21 20:28:00,
2013-06-21 12:33:00,54.6,47.2,29.97,North,0,0.0,-999.0,76,0.00,,,-99.99,,2013-06-21 20:33:00,
2013-06-21 12:38:00,53.9,47.5,29.97,North,0,0.0,-999.0,78,0.00,,,-99.99,,2013-06-21 20:38:00,
2013-06-21 12:44:00,53.8,47.3,29.97,North,0,0.0,-999.0,78,0.00,,,-99.99,,2013-06-21 20:44:00,
2013-06-21 12:50:00,54.5,46.8,29.97,North,0,0.0,-999.0,75,0.00,,,-99.99,,2013-06-21 20:50:00,
2013-06-21 12:56:00,54.8,47.7,29.97,North,0,0.0,-999.0,76,0.00,,,-99.99,,2013-06-21 20:56:00,
2013-06-21 13:01:00,55.2,47.9,29.97,North,0,0.0,-999.0,76,0.00,,,-99.99,,2013-06-21 21:01:00,
2013-06-21 13:06:00,56.5,48.2,29.97,North,0,0.0,-999.0,73,0.00,,,-99.99,,2013-06-21 21:06:00,
2013-06-21 13:09:00,56.4,47.7,29.97,North,0,0.0,-999.0,72,0.00,,,-99.99,,2013-06-21 21:09:00,
2013-06-21 13:14:00,55.3,46.5,29.97,North,0,0.0,-999.0,72,0.00,,,-99.99,,2013-06-21 21:14:00,
2013-06-21 13:19:00,55.9,46.2,29.97,North,0,0.0,-999.0,69,0.00,,,-99.99,,2013-06-21 21:19:00,
2013-06-21 13:24:00,56.0,46.0,29.97,North,0,0.0,-999.0,68,0.00,,,-99.99,,2013-06-21 21:24:00,
2013-06-21 13:29:00,56.2,45.7,29.97,North,0,0.0,-999.0,67,0.00,,,-99.99,,2013-06-21 21:29:00,
2013-06-21 13:34:00,56.7,46.2,29.97,North,0,0.0,-999.0,67,0.00,,,-99.99,,2013-06-21 21:34:00,
2013-06-21 13:39:00,56.4,45.5,29.97,North,0,0.0,-999.0,66,0.00,,,-99.99,,2013-06-21 21:39:00,
2013-06-21 13:45:00,56.4,45.8,29.97,North,0,0.0,-999.0,67,0.00,,,-99.99,,2013-06-21 21:45:00,
2013-06-21 13:51:00,56.3,45.5,29.97,North,0,0.0,-999.0,67,0.00,,,-99.99,,2013-06-21 21:51:00,
2013-06-21 13:56:00,56.0,45.4,29.97,North,0,0.0,-999.0,67,0.00,,,-99.99,,2013-06-21 21:56:00,
2013-06-21 14:01:00,55.9,45.8,29.97,North,0,0.0,-999.0,68,0.00,,,-99.99,,2013-06-21 22:01:00,
2013-06-21 14:06:00,56.4,45.7,29.97,North,0,0.0,-999.0,67,0.00,,,-99.99,,2013-06-21 22:06:00,
2013-06-21 14:12:00,56.0,45.2,29.97,North,0,0.0,-999.0,66,0.00,,,-99.99,,2013-06-21 22:12:00,
2013-06-21 14:17:00,55.7,45.3,29.97,North,0,0.0,-999.0,67,0.00,,,-99.99,,2013-06-21 22:17:00,
2013-06-21 14:22:00,56.4,45.3,29.97,North,0,0.0,-999.0,66,0.00,,,-99.99,,2013-06-21 22:22:00,
2013-06-21 14:27:00,56.2,45.0,29.97,North,0,0.0,-999.0,65,0.00,,,-99.99,,2013-06-21 22:27:00,
2013-06-21 14:32:00,56.7,44.7,29.97,North,0,0.0,-999.0,64,0.00,,,-99.99,,2013-06-21 22:32:00,
2013-06-21 14:37:00,56.5,44.3,29.97,North,0,0.0,-999.0,63,0.00,,,-99.99,,2013-06-21 22:37:00,
2013-06-21 14:42:00,55.0,43.9,29.97,North,0,0.0,-999.0,66,0.00,,,-99.99,,2013-06-21 22:42:00,
2013-06-21 14:47:00,56.4,44.6,29.97,North,0,0.0,-999.0,64,0.00,,,-99.99,,2013-06-21 22:47:00,
2013-06-21 14:52:00,57.5,44.9,29.97,North,0,0.0,-999.0,62,0.00,,,-99.99,,2013-06-21 22:52:00,
2013-06-21 14:57:00,56.5,44.3,29.97,North,0,0.0,-999.0,63,0.00,,,-99.99,,2013-06-21 22:57:00,
2013-06-21 15:02:00,55.8,44.3,29.97,North,0,0.0,-999.0,65,0.00,,,-99.99,,2013-06-21 23:02:00,
2013-06-21 15:07:00,55.4,44.5,29.97,North,0,0.0,-999.0,66,0.00,,,-99.99,,2013-06-21 23:07:00,
2013-06-21 15:12:00,55.5,44.5,29.97,North,0,0.0,-999.0,66,0.00,,,-99.99,,2013-06-21 23:12:00,
2013-06-21 15:17:00,54.6,44.5,29.97,North,0,0.0,-999.0,68,0.00,,,-99.99,,2013-06-21 23:17:00,
2013-06-21 15:23:00,54.7,44.5,29.97,North,0,0.0,-999.0,68,0.00,,,-99.99,,2013-06-21 23:23:00,
2013-06-21 15:28:00,54.5,44.2,29.97,North,0,0.0,-999.0,68,0.00,,,-99.99,,2013-06-21 23:28:00,
2013-06-21 15:33:00,54.6,44.2,29.97,North,0,0.0,-999.0,67,0.00,,,-99.99,,2013-06-21 23:33:00,
2013-06-21 15:38:00,54.8,44.5,29.97,North,0,0.0,-999.0,68,0.00,,,-99.99,,2013-06-21 23:38:00,
2013-06-21 15:43:00,54.8,44.5,29.97,North,0,0.0,-999.0,68,0.00,,,-99.99,,2013-06-21 23:43:00,
2013-06-21 15:48:00,54.3,44.3,29.97,North,0,0.0,-999.0,68,0.00,,,-99.99,,2013-06-21 23:48:00,
2013-06-21 15:53:00,54.3,44.4,29.97,North,0,0.0,-999.0,69,0.00,,,-99.99,,2013-06-21 23:53:00,
2013-06-21 15:58:00,53.6,43.9,29.97,North,0,0.0,-999.0,69,0.00,,,-99.99,,2013-06-21 23:58:00,
2013-06-21 16:03:00,53.4,43.7,29.98,North,0,0.0,-999.0,69,0.00,,,-99.99,,2013-06-22 00:03:00,
2013-06-21 16:08:00,54.6,44.9,29.98,North,0,0.0,-999.0,69,0.00,,,-99.99,,2013-06-22 00:08:00,
2013-06-21 16:13:00,55.0,44.1,29.98,North,0,0.0,-999.0,66,0.00,,,-99.99,,2013-06-22 00:13:00,
2013-06-21 16:18:00,54.6,44.1,29.98,North,0,0.0,-999.0,67,0.00,,,-99.99,,2013-06-22 00:18:00,
2013-06-21 16:23:00,54.9,44.6,29.98,North,0,0.0,-999.0,68,0.00,,,-99.99,,2013-06-22 00:23:00,
2013-06-21 16:28:00,54.3,44.2,29.98,North,0,0.0,-999.0,68,0.00,,,-99.99,,2013-06-22 00:28:00,
2013-06-21 16:33:00,54.6,44.7,29.98,North,0,0.0,-999.0,69,0.00,,,-99.99,,2013-06-22 00:33:00,
2013-06-21 16:38:00,54.3,44.6,29.98,North,0,0.0,-999.0,69,0.00,,,-99.99,,2013-06-22 00:38:00,
2013-06-21 16:43:00,54.9,44.5,29.98,North,0,0.0,-999.0,67,0.00,,,-99.99,,2013-06-22 00:43:00,
2013-06-21 16:49:00,54.9,44.8,29.98,North,0,0.0,-999.0,68,0.00,,,-99.99,,2013-06-22 00:49:00,
2013-06-21 16:54:00,55.3,44.8,29.98,North,0,0.0,-999.0,67,0.00,,,-99.99,,2013-06-22 00:54:00,
2013-06-21 16:59:00,55.0,44.7,29.98,North,0,0.0,-999.0,68,0.00,,,-99.99,,2013-06-22 00:59:00,
2013-06-21 17:04:00,55.0,44.8,29.98,North,0,0.0,-999.0,68,0.00,,,-99.99,,2013-06-22 01:04:00,
2013-06-21 17:09:00,54.8,44.8,29.98,North,0,0.0,-999.0,68,0.00,,,-99.99,,2013-06-22 01:09:00,
2013-06-21 17:14:00,55.1,44.7,29.98,North,0,0.0,-999.0,67,0.00,,,-99.99,,2013-06-22 01:14:00,
2013-06-21 17:19:00,55.0,45.2,29.98,North,0,0.0,-999.0,69,0.00,,,-99.99,,2013-06-22 01:19:00,
2013-06-21 17:24:00,54.6,45.1,29.98,North,0,0.0,-999.0,70,0.00,,,-99.99,,2013-06-22 01:24:00,
2013-06-21 17:29:00,54.5,45.1,29.98,North,0,0.0,-999.0,70,0.00,,,-99.99,,2013-06-22 01:29:00,
2013-06-21 17:34:00,54.5,45.2,29.98,North,0,0.0,-999.0,70,0.00,,,-99.99,,2013-06-22 01:34:00,
2013-06-21 17:39:00,54.2,45.2,29.98,North,0,0.0,-999.0,71,0.00,,,-99.99,,2013-06-22 01:39:00,
2013-06-21 17:44:00,54.0,45.2,29.98,North,0,0.0,-999.0,72,0.00,,,-99.99,,2013-06-22 01:44:00,
2013-06-21 17:49:00,53.2,44.9,29.98,North,0,0.0,-999.0,73,0.00,,,-99.99,,2013-06-22 01:49:00,
2013-06-21 17:54:00,53.0,44.8,29.98,North,0,0.0,-999.0,73,0.00,,,-99.99,,2013-06-22 01:54:00,
2013-06-21 17:59:00,53.0,45.0,29.97,North,0,0.0,-999.0,74,0.00,,,-99.99,,2013-06-22 01:59:00,
2013-06-21 18:04:00,52.6,44.9,29.97,North,0,0.0,-999.0,74,0.00,,,-99.99,,2013-06-22 02:04:00,
2013-06-21 18:09:00,52.6,45.0,29.97,North,0,0.0,-999.0,75,0.00,,,-99.99,,2013-06-22 02:09:00,
2013-06-21 18:14:00,52.5,44.8,29.97,North,0,0.0,-999.0,74,0.00,,,-99.99,,2013-06-22 02:14:00,
2013-06-21 18:19:00,52.4,45.0,29.97,North,0,0.0,-999.0,75,0.00,,,-99.99,,2013-06-22 02:19:00,
2013-06-21 18:24:00,52.6,45.0,29.97,North,0,0.0,-999.0,75,0.00,,,-99.99,,2013-06-22 02:24:00,
2013-06-21 18:29:00,52.4,45.0,29.97,North,0,0.0,-999.0,75,0.00,,,-99.99,,2013-06-22 02:29:00,
2013-06-21 18:34:00,52.4,45.3,29.97,North,0,0.0,-999.0,76,0.00,,,-99.99,,2013-06-22 02:34:00,
2013-06-21 18:39:00,52.7,45.1,29.97,North,0,0.0,-999.0,75,0.00,,,-99.99,,2013-06-22 02:39:00,
2013-06-21 18:44:00,52.7,45.1,29.97,North,0,0.0,-999.0,75,0.00,,,-99.99,,2013-06-22 02:44:00,
2013-06-21 18:49:00,52.8,44.9,29.97,North,0,0.0,-999.0,74,0.00,,,-99.99,,2013-06-22 02:49:00,
2013-06-21 18:54:00,52.5,44.9,29.97,North,0,0.0,-999.0,75,0.00,,,-99.99,,2013-06-22 02:54:00,
2013-06-21 18:59:00,52.6,44.8,29.97,North,0,0.0,-999.0,74,0.00,,,-99.99,,2013-06-22 02:59:00,
2013-06-21 19:04:00,52.7,44.9,29.97,North,0,0.0,-999.0,74,0.00,,,-99.99,,2013-06-22 03:04:00,
2013-06-21 19:09:00,52.5,44.7,29.97,North,0,0.0,-999.0,74,0.00,,,-99.99,,2013-06-22 03:09:00,
2013-06-21 19:14:00,52.5,45.0,29.97,North,0,0.0,-999.0,75,0.00,,,-99.99,,2013-06-22 03:14:00,
2013-06-21 19:19:00,52.6,44.9,29.97,North,0,0.0,-999.0,74,0.00,,,-99.99,,2013-06-22 03:19:00,
2013-06-21 19:24:00,52.8,45.3,29.97,North,0,0.0,-999.0,75,0.00,,,-99.99,,2013-06-22 03:24:00,
2013-06-21 19:29:00,52.4,45.0,29.97,North,0,0.0,-999.0,75,0.00,,,-99.99,,2013-06-22 03:29:00,
2013-06-21 19:34:00,52.4,44.8,29.97,North,0,0.0,-999.0,75,0.00,,,-99.99,,2013-06-22 03:34:00,
2013-06-21 19:39:00,52.0,44.8,29.97,North,0,0.0,-999.0,76,0.00,,,-99.99,,2013-06-22 03:39:00,
2013-06-21 19:44:00,52.2,44.7,29.97,North,0,0.0,-999.0,75,0.00,,,-99.99,,2013-06-22 03:44:00,
2013-06-21 19:49:00,52.7,45.3,29.97,North,0,0.0,-999.0,75,0.00,,,-99.99,,2013-06-22 03:49:00,
2013-06-21 19:54:00,52.2,45.2,29.97,North,0,0.0,-999.0,76,0.00,,,-99.99,,2013-06-22 03:54:00,
2013-06-21 19:59:00,52.2,45.3,29.96,North,0,0.0,-999.0,77,0.00,,,-99.99,,2013-06-22 03:59:00,
2013-06-21 20:01:00,51.9,45.3,29.96,North,0,0.0,-999.0,78,0.00,,,-99.99,,2013-06-22 04:01:00,
2013-06-21 20:03:00,51.8,45.4,29.96,North,0,0.0,-999.0,78,0.00,,,-99.99,,2013-06-22 04:03:00,
2013-06-21 20:04:00,51.8,45.4,29.96,North,0,0.0,-999.0,78,0.00,,,-99.99,,2013-06-22 04:04:00,
2013-06-21 20:05:00,51.8,45.4,29.96,North,0,0.0,-999.0,78,0.00,,,-99.99,,2013-06-22 04:05:00,
2013-06-21 20:10:00,51.8,45.2,29.96,North,0,0.0,-999.0,78,0.00,,,-99.99,,2013-06-22 04:10:00,
2013-06-21 20:11:00,51.5,45.2,29.96,North,0,0.0,-999.0,79,0.00,,,-99.99,,2013-06-22 04:11:00,
2013-06-21 20:16:00,51.7,45.4,29.96,North,0,0.0,-999.0,78,0.00,,,-99.99,,2013-06-22 04:16:00,
2013-06-21 20:21:00,51.6,45.7,29.96,North,0,0.0,-999.0,79,0.00,,,-99.99,,2013-06-22 04:21:00,
2013-06-21 20:26:00,51.8,45.7,29.96,North,0,0.0,-999.0,79,0.00,,,-99.99,,2013-06-22 04:26:00,
2013-06-21 20:31:00,52.1,45.8,29.96,North,0,0.0,-999.0,78,0.00,,,-99.99,,2013-06-22 04:31:00,
2013-06-21 20:36:00,51.8,45.4,29.96,North,0,0.0,-999.0,78,0.00,,,-99.99,,2013-06-22 04:36:00,
2013-06-21 20:41:00,51.7,45.4,29.96,North,0,0.0,-999.0,78,0.00,,,-99.99,,2013-06-22 04:41:00,
2013-06-21 20:46:00,51.6,45.2,29.96,North,0,0.0,-999.0,78,0.00,,,-99.99,,2013-06-22 04:46:00,
2013-06-21 20:51:00,51.8,45.2,29.96,North,0,0.0,-999.0,77,0.00,,,-99.99,,2013-06-22 04:51:00,
2013-06-21 20:56:00,51.8,45.2,29.96,North,0,0.0,-999.0,78,0.00,,,-99.99,,2013-06-22 04:56:00,
2013-06-21 21:01:00,52.1,45.4,29.95,North,0,0.0,-999.0,77,0.00,,,-99.99,,2013-06-22 05:01:00,
2013-06-21 21:06:00,52.0,45.4,29.95,North,0,0.0,-999.0,78,0.00,,,-99.99,,2013-06-22 05:06:00,
2013-06-21 21:11:00,51.8,45.3,29.95,North,0,0.0,-999.0,78,0.00,,,-99.99,,2013-06-22 05:11:00,
2013-06-21 21:16:00,51.5,45.4,29.95,North,0,0.0,-999.0,79,0.00,,,-99.99,,2013-06-22 05:16:00,
2013-06-21 21:21:00,51.6,45.4,29.95,North,0,0.0,-999.0,79,0.00,,,-99.99,,2013-06-22 05:21:00,
2013-06-21 21:26:00,51.4,45.2,29.95,North,0,0.0,-999.0,79,0.00,,,-99.99,,2013-06-22 05:26:00,
2013-06-21 21:31:00,51.1,45.4,29.95,North,0,0.0,-999.0,80,0.00,,,-99.99,,2013-06-22 05:31:00,
2013-06-21 21:36:00,50.8,45.3,29.95,North,0,0.0,-999.0,81,0.00,,,-99.99,,2013-06-22 05:36:00,
2013-06-21 21:41:00,50.8,45.5,29.95,North,0,0.0,-999.0,81,0.00,,,-99.99,,2013-06-22 05:41:00,
2013-06-21 21:46:00,51.0,45.7,29.95,North,0,0.0,-999.0,81,0.00,,,-99.99,,2013-06-22 05:46:00,
2013-06-21 21:51:00,51.0,45.7,29.95,North,0,0.0,-999.0,82,0.00,,,-99.99,,2013-06-22 05:51:00,
2013-06-21 21:56:00,50.8,45.5,29.95,North,0,0.0,-999.0,81,0.00,,,-99.99,,2013-06-22 05:56:00,
2013-06-21 22:01:00,50.3,45.3,29.94,North,0,0.0,-999.0,82,0.00,,,-99.99,,2013-06-22 06:01:00,
2013-06-21 22:06:00,50.2,45.5,29.94,North,0,0.0,-999.0,83,0.00,,,-99.99,,2013-06-22 06:06:00,
2013-06-21 22:11:00,50.4,45.7,29.94,North,0,0.0,-999.0,83,0.00,,,-99.99,,2013-06-22 06:11:00,
2013-06-21 22:16:00,50.3,45.9,29.94,North,0,0.0,-999.0,84,0.00,,,-99.99,,2013-06-22 06:16:00,
2013-06-21 22:21:00,50.3,45.6,29.94,North,0,0.0,-999.0,83,0.00,,,-99.99,,2013-06-22 06:21:00,
2013-06-21 22:26:00,50.3,45.8,29.94,North,0,0.0,-999.0,84,0.00,,,-99.99,,2013-06-22 06:26:00,
2013-06-21 22:31:00,50.0,45.5,29.94,North,0,0.0,-999.0,84,0.00,,,-99.99,,2013-06-22 06:31:00,
2013-06-21 22:36:00,50.1,45.8,29.94,North,0,0.0,-999.0,85,0.00,,,-99.99,,2013-06-22 06:36:00,
2013-06-21 22:41:00,49.5,45.6,29.94,North,0,0.0,-999.0,86,0.00,,,-99.99,,2013-06-22 06:41:00,
2013-06-21 22:46:00,49.5,45.7,29.94,North,0,0.0,-999.0,86,0.00,,,-99.99,,2013-06-22 06:46:00,
2013-06-21 22:51:00,49.2,45.6,29.94,North,0,0.0,-999.0,87,0.00,,,-99.99,,2013-06-22 06:51:00,
2013-06-21 22:56:00,49.3,45.7,29.94,North,0,0.0,-999.0,87,0.00,,,-99.99,,2013-06-22 06:56:00,
2013-06-21 23:01:00,49.5,45.6,29.94,North,0,0.0,-999.0,86,0.00,,,-99.99,,2013-06-22 07:01:00,
2013-06-21 23:06:00,49.5,45.4,29.94,North,0,0.0,-999.0,85,0.00,,,-99.99,,2013-06-22 07:06:00,
2013-06-21 23:11:00,49.5,45.1,29.94,North,0,0.0,-999.0,84,0.00,,,-99.99,,2013-06-22 07:11:00,
2013-06-21 23:16:00,49.2,44.6,29.94,North,0,0.0,-999.0,83,0.00,,,-99.99,,2013-06-22 07:16:00,
2013-06-21 23:22:00,49.2,44.7,29.94,North,0,0.0,-999.0,84,0.00,,,-99.99,,2013-06-22 07:22:00,
2013-06-21 23:27:00,49.2,44.4,29.94,North,0,0.0,-999.0,83,0.00,,,-99.99,,2013-06-22 07:27:00,
2013-06-21 23:32:00,49.1,44.5,29.94,North,0,0.0,-999.0,84,0.00,,,-99.99,,2013-06-22 07:32:00,
2013-06-21 23:37:00,49.3,44.5,29.94,North,0,0.0,-999.0,83,0.00,,,-99.99,,2013-06-22 07:37:00,
2013-06-21 23:42:00,49.1,44.3,29.94,North,0,0.0,-999.0,83,0.00,,,-99.99,,2013-06-22 07:42:00,
2013-06-21 23:47:00,49.2,44.4,29.94,North,0,0.0,-999.0,83,0.00,,,-99.99,,2013-06-22 07:47:00,
2013-06-21 23:52:00,48.9,44.3,29.94,North,0,0.0,-999.0,83,0.00,,,-99.99,,2013-06-22 07:52:00,
2013-06-21 23:57:00,48.9,44.3,29.94,North,0,0.0,-999.0,83,0.00,,,-99.99,,2013-06-22 07:57:00,